Edgerton, Minnesota
Current Conditions -  °F | °C
As of 6:14 PM on Sunday 23 Nov 2014 (Local Time) from KPQN Reporting Station
Overcast Overcast  
Wind Chill: 22°   Ceiling: 2700
Heat Index: 34°   Visibility: 10mi
Dew Point: 27°   Wind: 20mph
Humidity: 75%   Direction: 340°NNW
Pressure: 29.5"   Gusts: 26mph
Location:  43.87°N, 96.13°W
Report Text: KPQN 240014Z AUTO 34017G23KT 10SM OVC027 01/M03 A2950 RMK AO2
Loading
Personal Weather Stations






























Interactive Weather Map New forecast layout! Learn more

10-Day Weather Forecast

Advertisements
Track Severe Weather on mobile